Hlavní strana
METAR-TAF:

METAR-TAF

Letiště :

Bejrút, Libanon

zeměpisná šířka: 33-49N, zeměpisná délka: 035-29E, výška: 29 m

Aktuální stav počasí

Zpráva byla vytvořena před 1 hodinou a 3 minutami, v 19:00 UTC
Jihovýchodní vítr 5 kt
Teplota 19°C
Vlhkost vzduchu 56%
Tlak 1021 hPa
Viditelnost 10 km a více
Žádná oblačnost pod 1500 m, nevyskytují se cumulonimby.

METAR: OLBA 191900Z 13005KT CAVOK 19/10 Q1021 NOSIG

Čas: 22:03 (20:03 UTC)

Předpověď počasí

Zpráva byla vytvořena před 4 hodinami a 3 minutami, v 16:00 UTC
Předpověď platná od 19 v 18 UTC do 20 v 24 UTC
vítr z různých směrů 3 kt
Viditelnost: 8000 m
Jasno
Dočasný
od 19 v 18 UTC do 20 v 24 UTC
vítr z různých směrů 3 kt
Změna
od 20 v 09 UTC do 20 v 12 UTC
Severoseverozápadní vítr 10 kt s nárazy do 20 kt
Změna
od 20 v 21 UTC do 20 v 24 UTC
vítr z různých směrů 3 kt

TAF: OLBA 191600Z 1918/2024 VRB03KT 8000 SKC TEMPO 1918/2024 VRB03KT BECMG 2009/2012 33010G20KT BECMG 2021/2024 VRB03KT

Stav a předpovědi počasí z více než 4 000 letišť (zprávy METAR a TAF).

Červené a žluté tečky na mapě představují dostupné meteorologické stanice.

Když kurzor umístíte na tečku, zobrazí se název stanice.

Pak kliknutím zobrazíte stav a předpověď počasí.

Chcete-li změnit mapu, kliknutím na zelené tlačítko se znaménkem +mapu přiblížíte, kliknutím na zelené tlačítko se znaménkem – mapu oddálíte a kliknutím na zelené šipky přejdete na sousední mapy.


METAR-TAF: